Aérodrome :
LOGIN :

S'inscrire | Disclaimer

   EN    FR    IT 

 










Légende :    VFR   VFR Marginal   IFR   IFR Intensif   IFR Très Intensif
Visi : 
Plafond : 
>= 8 km
>= 3000ft
5 à 8 km
1000 à 3000 ft
1500m à 5 km
500 à 1000 ft
800 à 1500m
200 à 500 ft
< 800m
< 200 ft
Symboles :   Orages  Brouillard  Fortes neiges  Fortes précipitations  Vent > 20 kt
SIGMETs :   Divers  Orages  Givrage  Turbulence  Onde Orograph.  Cendres Volcan.






- Altitude de l'aérodrome : 3 ft
- Code IATA : DHR


EHKD - Den Helder De Kooy

DERNIER METAR :
  • 161225Z AUTO 20017KT 160V230 9999 FEW073 BKN081 OVC087 02/M02 Q1021 BLU

METARs EXPIRÉS :
  • 161155Z AUTO 20017KT 9999 FEW024 BKN096 OVC100 03/M02 Q1021 BLU
  • 161125Z AUTO 20018KT 9999 FEW025 OVC042 03/M02 Q1022 BLU
  • 161114Z AUTO 20017KT 170V230 9999 BKN024 BKN028 OVC041 03/M02 Q1022 WHT
  • 161055Z AUTO 20017KT 9999 FEW024 SCT034 OVC040 03/M02 Q1022 BLU NOSIG
  • 161047Z AUTO 20017KT 9999 SCT024 BKN031 OVC040 03/M02 Q1022 WHT NOSIG
  • 161030Z AUTO 20016KT 170V230 9999 FEW024 BKN029 BKN032 03/M01 Q1023 BLU NOSIG
  • 161004Z AUTO 21017KT 9999 FEW024 SCT028 OVC039 03/M02 Q1023 BLU NOSIG
  • 160955Z AUTO 21015KT 9999 SCT023 BKN026 OVC039 03/M01 Q1023 WHT NOSIG
  • 160942Z AUTO 20015KT 180V240 9999 FEW023 SCT028 OVC038 04/M01 Q1023 BLU NOSIG
  • 160938Z AUTO 20014KT 180V240 9999 SCT023 BKN028 OVC037 04/M01 Q1023 WHT NOSIG

TAF TAF EHKD
Valide du 16 à 10h jusqu'au 16 à 22h UTC


160950Z 1610/1622 20015KT SCT022 BKN045
BECMG 1614/1616 4000 -RASN SCT012 BKN018
PROB40
TEMPO 1615/1618 1200 SN VV003
BECMG 0617/0619 3000 BR -DZ SCT004 BKN007
PROB30
TEMPO 0618/0622 -FZDZ -PL



MET'MAP, la Météo Aéronautique d'un coup d'oeil ! - Copyright ORBIFLY Décembre 2007 - Disclaimer

ORBIFLY MET'MAP TEAM :

Programmation & Développement : Alexandra Zaïnal
Sur une idée originale de : Baudouin d'Aumeries
Assistance à la programmation : Marc-Olivier Méhu
Soutien technique & logistique : Manuel Goepfert

Contact : metmap@orbifly.com




SOURCES & CREDITS :

   NOAA